createdAt,value
2018-12-14T00:00:36.851Z,31.50
2018-12-14T00:03:05.220Z,30.77
2018-12-14T00:05:33.535Z,33.07
2018-12-14T00:08:02.013Z,31.20
2018-12-14T00:10:30.289Z,30.10
2018-12-14T00:12:58.649Z,34.53
2018-12-14T00:15:26.943Z,30.37
2018-12-14T00:17:56.174Z,30.70
2018-12-14T00:20:24.444Z,29.67
2018-12-14T00:22:52.678Z,32.83
2018-12-14T00:25:21.349Z,30.37
2018-12-14T00:27:49.610Z,28.80
2018-12-14T00:30:17.847Z,28.63
2018-12-14T00:32:46.086Z,30.50
2018-12-14T00:35:14.733Z,32.40
2018-12-14T00:37:42.992Z,30.92
2018-12-14T00:40:11.530Z,32.13
2018-12-14T00:42:39.823Z,30.57
2018-12-14T00:45:08.063Z,32.42
2018-12-14T00:47:36.356Z,31.73
2018-12-14T00:50:06.101Z,30.62
2018-12-14T00:52:34.466Z,34.50
2018-12-14T00:55:03.909Z,35.80
2018-12-14T00:57:32.156Z,34.98
2018-12-14T01:00:00.484Z,33.83
2018-12-14T01:02:28.818Z,38.50
2018-12-14T01:04:57.225Z,32.67
2018-12-14T01:07:25.501Z,32.43
2018-12-14T01:09:53.867Z,30.23
2018-12-14T01:12:22.211Z,31.52
2018-12-14T01:14:50.510Z,35.47
2018-12-14T01:17:18.755Z,31.37
2018-12-14T01:19:47.032Z,31.93
2018-12-14T01:22:15.320Z,35.10
2018-12-14T01:24:43.633Z,41.57
2018-12-14T01:27:11.894Z,30.57
2018-12-14T01:29:40.176Z,34.80
2018-12-14T01:32:08.437Z,37.08
2018-12-14T01:34:36.731Z,36.03
2018-12-14T01:37:05.069Z,35.83
2018-12-14T01:39:33.299Z,38.03
2018-12-14T01:42:04.825Z,39.07
2018-12-14T01:44:31.828Z,36.95
2018-12-14T01:47:00.167Z,47.03
2018-12-14T01:49:28.472Z,38.60
2018-12-14T01:51:56.860Z,39.47
2018-12-14T01:54:25.172Z,40.63
2018-12-14T01:56:53.542Z,41.93
2018-12-14T01:59:21.776Z,42.03
2018-12-14T02:01:50.020Z,43.08
2018-12-14T02:04:18.324Z,36.67
2018-12-14T02:06:46.601Z,39.35
2018-12-14T02:09:14.978Z,42.90
2018-12-14T02:11:44.267Z,40.48
2018-12-14T02:14:12.519Z,37.42
2018-12-14T02:16:40.776Z,37.08
2018-12-14T02:19:09.095Z,43.05
2018-12-14T02:21:37.329Z,37.87
2018-12-14T02:24:05.636Z,38.38
2018-12-14T02:26:33.900Z,37.10
2018-12-14T02:29:02.245Z,40.63
2018-12-14T02:31:30.537Z,38.63
2018-12-14T02:33:58.876Z,40.90
2018-12-14T02:36:27.150Z,45.85
2018-12-14T02:38:55.533Z,41.50
2018-12-14T02:41:23.773Z,35.40
2018-12-14T02:43:52.015Z,41.28
2018-12-14T02:46:20.286Z,45.70
2018-12-14T02:48:48.550Z,41.53
2018-12-14T02:51:16.785Z,44.30
2018-12-14T02:53:45.061Z,46.17
2018-12-14T02:56:13.350Z,37.73
2018-12-14T02:58:41.594Z,39.78
2018-12-14T03:01:09.834Z,45.33
2018-12-14T03:03:38.086Z,38.70
2018-12-14T03:06:06.334Z,42.30
2018-12-14T03:08:34.836Z,41.83
2018-12-14T03:11:03.061Z,44.37
2018-12-14T03:13:31.421Z,46.20
2018-12-14T03:16:01.924Z,42.05
2018-12-14T03:18:29.979Z,39.93
2018-12-14T03:20:58.207Z,43.23
2018-12-14T03:23:26.586Z,43.10
2018-12-14T03:25:55.248Z,48.30
2018-12-14T03:28:23.488Z,39.75
2018-12-14T03:30:51.786Z,37.67
2018-12-14T03:33:20.101Z,47.23
2018-12-14T03:35:48.504Z,43.90
2018-12-14T03:38:16.809Z,43.23
2018-12-14T03:40:45.077Z,46.87
2018-12-14T03:43:13.936Z,48.23
2018-12-14T03:45:42.240Z,43.53
2018-12-14T03:48:10.629Z,46.73
2018-12-14T03:50:38.908Z,50.10
2018-12-14T03:53:07.171Z,47.13
2018-12-14T03:55:35.449Z,45.50
2018-12-14T03:58:03.851Z,45.53
2018-12-14T04:00:32.362Z,50.35
2018-12-14T04:03:01.775Z,47.60
2018-12-14T04:05:30.544Z,37.23
2018-12-14T04:07:58.847Z,47.73
2018-12-14T04:10:27.076Z,45.47
2018-12-14T04:12:55.332Z,48.47
2018-12-14T04:15:23.711Z,42.53
2018-12-14T04:17:52.100Z,43.65
2018-12-14T04:20:20.329Z,45.43
2018-12-14T04:22:48.655Z,42.50
2018-12-14T04:25:16.980Z,47.30
2018-12-14T04:27:45.239Z,49.93
2018-12-14T04:30:14.240Z,47.33
2018-12-14T04:32:42.532Z,52.17
2018-12-14T04:35:10.950Z,41.63
2018-12-14T04:37:39.191Z,49.08
2018-12-14T04:40:07.752Z,49.38
2018-12-14T04:42:36.363Z,46.43
2018-12-14T04:45:05.315Z,44.93
2018-12-14T04:47:33.705Z,46.17
2018-12-14T04:50:02.021Z,47.63
2018-12-14T04:52:30.388Z,51.23
2018-12-14T04:54:58.724Z,47.27
2018-12-14T04:57:27.522Z,41.87
2018-12-14T04:59:55.782Z,46.87
2018-12-14T05:02:24.149Z,43.40
2018-12-14T05:04:52.690Z,42.27
2018-12-14T05:07:21.043Z,46.77
2018-12-14T05:09:49.355Z,45.30
2018-12-14T05:12:17.575Z,45.70
2018-12-14T05:14:46.143Z,43.50
2018-12-14T05:17:14.371Z,44.13
2018-12-14T05:19:42.699Z,50.27
2018-12-14T05:22:11.072Z,45.40
2018-12-14T05:24:39.339Z,46.07
2018-12-14T05:27:08.001Z,40.67
2018-12-14T05:29:36.252Z,45.20
2018-12-14T05:32:04.532Z,46.50
2018-12-14T05:34:32.788Z,38.97
2018-12-14T05:37:01.107Z,45.93
2018-12-14T05:39:29.344Z,42.17
2018-12-14T05:41:57.751Z,38.53
2018-12-14T05:44:26.000Z,37.43
2018-12-14T05:46:54.258Z,45.17
2018-12-14T05:49:22.512Z,44.43
2018-12-14T05:51:50.761Z,46.70
2018-12-14T05:54:18.988Z,44.73
2018-12-14T05:56:47.247Z,45.50
2018-12-14T05:59:15.480Z,41.90
2018-12-14T06:01:43.711Z,42.10
2018-12-14T06:04:12.095Z,42.70
2018-12-14T06:06:40.502Z,50.33
2018-12-14T06:09:10.178Z,46.80
2018-12-14T06:11:38.400Z,48.60
2018-12-14T06:14:06.647Z,45.77
2018-12-14T06:16:34.923Z,44.63
2018-12-14T06:19:03.195Z,42.63
2018-12-14T06:21:31.538Z,44.87
2018-12-14T06:23:59.771Z,48.77
2018-12-14T06:26:28.491Z,39.07
2018-12-14T06:28:56.858Z,48.40
2018-12-14T06:31:25.124Z,41.27
2018-12-14T06:33:53.389Z,49.40
2018-12-14T06:36:21.802Z,46.90
2018-12-14T06:38:50.054Z,47.80
2018-12-14T06:41:18.284Z,44.67
2018-12-14T06:43:46.668Z,46.10
2018-12-14T06:46:14.952Z,43.70
2018-12-14T06:48:43.326Z,37.83
2018-12-14T06:51:11.776Z,46.03
2018-12-14T06:53:40.161Z,44.97
2018-12-14T06:56:08.489Z,40.13
2018-12-14T06:58:37.111Z,45.10
2018-12-14T07:01:05.437Z,41.43
2018-12-14T07:03:33.658Z,42.70
2018-12-14T07:06:01.989Z,39.77
2018-12-14T07:08:31.334Z,41.97
2018-12-14T07:10:59.758Z,42.03
2018-12-14T07:13:28.048Z,44.67
2018-12-14T07:15:56.380Z,41.87
2018-12-14T07:18:24.728Z,44.60
2018-12-14T07:20:53.001Z,44.97
2018-12-14T07:23:21.228Z,50.60
2018-12-14T07:25:49.548Z,40.53
2018-12-14T07:28:17.762Z,35.23
2018-12-14T07:30:46.058Z,43.20
2018-12-14T07:33:14.328Z,43.93
2018-12-14T07:35:42.551Z,47.30
2018-12-14T07:38:10.791Z,39.40
2018-12-14T07:40:39.032Z,43.57
2018-12-14T07:43:07.520Z,42.20
2018-12-14T07:45:35.817Z,43.57
2018-12-14T07:48:04.122Z,41.97
2018-12-14T07:50:32.366Z,47.87
2018-12-14T07:53:00.627Z,40.03
2018-12-14T07:55:28.884Z,40.93
2018-12-14T07:57:57.147Z,40.97
2018-12-14T08:00:25.358Z,44.00
2018-12-14T08:02:53.612Z,40.30
2018-12-14T08:05:21.885Z,46.10
2018-12-14T08:07:50.107Z,46.87
2018-12-14T08:10:18.324Z,42.70
2018-12-14T08:12:46.852Z,44.73
2018-12-14T08:15:15.610Z,40.07
2018-12-14T08:17:43.915Z,40.40
2018-12-14T08:20:17.119Z,41.97
2018-12-14T08:22:42.464Z,42.63
2018-12-14T08:25:10.787Z,45.70
2018-12-14T08:27:39.125Z,43.30
2018-12-14T08:30:08.687Z,47.50
2018-12-14T08:32:36.998Z,42.20
2018-12-14T08:35:06.577Z,46.13
2018-12-14T08:37:34.888Z,44.80
2018-12-14T08:40:05.429Z,43.40
2018-12-14T08:42:33.722Z,46.07
2018-12-14T08:45:02.069Z,41.70
2018-12-14T08:47:30.324Z,44.40
2018-12-14T08:49:58.619Z,42.20
2018-12-14T08:52:26.920Z,40.37
2018-12-14T08:54:55.302Z,44.47
2018-12-14T08:57:23.523Z,38.47
2018-12-14T08:59:51.847Z,42.70
2018-12-14T09:02:20.173Z,48.03
2018-12-14T09:04:48.464Z,41.87
2018-12-14T09:07:16.780Z,42.17
2018-12-14T09:09:45.522Z,42.20
2018-12-14T09:12:13.836Z,42.63
2018-12-14T09:14:42.079Z,36.53
2018-12-14T09:17:10.498Z,39.63
2018-12-14T09:19:38.715Z,44.13
2018-12-14T09:22:06.961Z,42.30
2018-12-14T09:24:35.227Z,38.77
2018-12-14T09:27:03.732Z,43.70
2018-12-14T09:29:32.019Z,45.50
2018-12-14T09:32:00.340Z,39.40
2018-12-14T09:34:28.615Z,42.93
2018-12-14T09:36:56.851Z,44.10
2018-12-14T09:39:25.104Z,43.73
2018-12-14T09:41:53.371Z,45.20
2018-12-14T09:44:22.127Z,41.37
2018-12-14T09:46:50.343Z,47.73
2018-12-14T09:49:18.808Z,49.10
2018-12-14T09:51:47.147Z,42.03
2018-12-14T09:54:15.554Z,41.93
2018-12-14T09:56:43.805Z,42.40
2018-12-14T09:59:12.339Z,50.17
2018-12-14T10:01:40.691Z,45.90
2018-12-14T10:04:08.962Z,40.40
2018-12-14T10:06:37.216Z,38.00
2018-12-14T10:09:05.938Z,40.20
2018-12-14T10:11:34.265Z,45.23
2018-12-14T10:14:02.553Z,44.53
2018-12-14T10:16:31.032Z,45.00
2018-12-14T10:18:59.808Z,44.50
2018-12-14T10:21:28.131Z,46.80
2018-12-14T10:23:56.432Z,46.80
2018-12-14T10:26:24.666Z,45.40
2018-12-14T10:28:53.070Z,51.20
2018-12-14T10:31:21.377Z,43.93
2018-12-14T10:33:49.607Z,39.60
2018-12-14T10:36:18.184Z,39.17
2018-12-14T10:38:46.444Z,43.90
2018-12-14T10:41:14.694Z,40.67
2018-12-14T10:43:42.970Z,38.70
2018-12-14T10:46:11.199Z,40.20
2018-12-14T10:48:39.568Z,39.20
2018-12-14T10:51:07.915Z,42.73
2018-12-14T10:53:36.127Z,41.27
2018-12-14T10:56:04.430Z,37.20
2018-12-14T10:58:32.666Z,38.40
2018-12-14T11:01:06.629Z,40.83
2018-12-14T11:03:34.863Z,38.03
2018-12-14T11:06:03.405Z,38.50
2018-12-14T11:08:31.675Z,39.77
2018-12-14T11:10:59.914Z,39.03
2018-12-14T11:13:28.177Z,40.50
2018-12-14T11:15:56.464Z,40.17
2018-12-14T11:18:24.726Z,37.77
2018-12-14T11:20:53.003Z,43.97
2018-12-14T11:23:21.280Z,42.50
2018-12-14T11:25:49.503Z,40.27
2018-12-14T11:28:17.751Z,40.60
2018-12-14T11:30:46.008Z,38.53
2018-12-14T11:33:15.054Z,38.10
2018-12-14T11:35:43.283Z,36.90
2018-12-14T11:38:11.548Z,42.13
2018-12-14T11:40:39.824Z,41.87
2018-12-14T11:43:08.445Z,36.37
2018-12-14T11:45:36.817Z,45.10
2018-12-14T11:48:05.127Z,42.57
2018-12-14T11:50:33.435Z,38.70
2018-12-14T11:53:02.743Z,39.03
2018-12-14T11:55:31.064Z,37.77
2018-12-14T11:57:59.352Z,43.00
2018-12-14T12:00:27.655Z,37.37
2018-12-14T12:02:55.943Z,38.90
2018-12-14T12:05:24.227Z,34.57
2018-12-14T12:07:52.836Z,32.67
2018-12-14T12:10:21.326Z,38.77
2018-12-14T12:12:49.707Z,38.17
2018-12-14T12:15:17.944Z,34.77
2018-12-14T12:17:49.541Z,37.77
2018-12-14T12:20:16.880Z,38.70
2018-12-14T12:22:45.191Z,37.80
2018-12-14T12:25:13.420Z,32.67
2018-12-14T12:27:41.734Z,37.73
2018-12-14T12:30:10.255Z,32.47
2018-12-14T12:32:38.612Z,42.10
2018-12-14T12:35:08.106Z,35.23
2018-12-14T12:37:36.584Z,37.07
2018-12-14T12:40:05.459Z,33.30
2018-12-14T12:42:33.761Z,30.23
2018-12-14T12:45:02.434Z,33.00
2018-12-14T12:47:30.675Z,37.63
2018-12-14T12:49:58.937Z,32.77
2018-12-14T12:52:27.192Z,40.67
2018-12-14T12:54:55.453Z,32.43
2018-12-14T12:57:23.690Z,35.10
2018-12-14T12:59:51.950Z,36.23
2018-12-14T13:02:20.184Z,33.90
2018-12-14T13:04:48.577Z,34.40
2018-12-14T13:07:16.816Z,41.10
2018-12-14T13:09:45.077Z,36.30
2018-12-14T13:12:13.343Z,30.03
2018-12-14T13:14:41.576Z,38.73
2018-12-14T13:17:10.452Z,34.07
2018-12-14T13:19:38.743Z,41.93
2018-12-14T13:22:06.970Z,35.43
2018-12-14T13:24:35.212Z,35.83
2018-12-14T13:27:03.791Z,35.47
2018-12-14T13:29:32.044Z,36.80
2018-12-14T13:32:00.289Z,35.97
2018-12-14T13:34:28.536Z,37.57
2018-12-14T13:36:56.784Z,30.83
2018-12-14T13:39:25.052Z,34.57
2018-12-14T13:41:53.443Z,32.17
2018-12-14T13:44:21.914Z,34.03
2018-12-14T13:46:50.328Z,31.13
2018-12-14T13:49:18.761Z,39.00
2018-12-14T13:51:47.187Z,34.80
2018-12-14T13:54:15.534Z,34.90
2018-12-14T13:56:43.787Z,33.73
2018-12-14T13:59:12.047Z,30.93
2018-12-14T14:01:40.360Z,33.33
2018-12-14T14:04:08.807Z,34.20
2018-12-14T14:06:37.240Z,33.77
2018-12-14T14:09:05.761Z,29.10
2018-12-14T14:11:34.067Z,34.77
2018-12-14T14:14:02.307Z,35.53
2018-12-14T14:16:30.561Z,35.07
2018-12-14T14:18:58.882Z,36.30
2018-12-14T14:21:27.236Z,35.10
2018-12-14T14:23:55.466Z,39.17
2018-12-14T14:26:23.722Z,39.87
2018-12-14T14:28:52.032Z,38.50
2018-12-14T14:31:20.402Z,33.53
2018-12-14T14:33:48.636Z,57.93
2018-12-14T14:36:16.874Z,38.90
2018-12-14T14:38:45.136Z,79.00
2018-12-14T14:41:13.434Z,63.27
2018-12-14T14:43:42.659Z,46.17
2018-12-14T14:46:10.932Z,37.97
2018-12-14T14:48:39.218Z,34.97
2018-12-14T14:51:07.986Z,36.57
2018-12-14T14:53:36.258Z,36.20
2018-12-14T14:56:04.575Z,30.67
2018-12-14T14:58:32.958Z,37.37
2018-12-14T15:01:01.374Z,30.03
2018-12-14T15:03:29.940Z,33.03
2018-12-14T15:05:58.227Z,33.03
2018-12-14T15:08:26.571Z,32.40
2018-12-14T15:10:54.917Z,35.03
2018-12-14T15:13:25.234Z,35.40
2018-12-14T15:15:53.475Z,34.37
2018-12-14T15:18:21.742Z,30.67
2018-12-14T15:20:49.975Z,32.07
2018-12-14T15:23:18.229Z,33.03
2018-12-14T15:25:46.553Z,35.30
2018-12-14T15:28:14.976Z,30.27
2018-12-14T15:30:43.207Z,32.30
2018-12-14T15:33:11.504Z,35.20
2018-12-14T15:35:39.936Z,31.30
2018-12-14T15:38:08.648Z,30.40
2018-12-14T15:40:36.944Z,29.80
2018-12-14T15:43:05.216Z,34.17
2018-12-14T15:45:33.533Z,37.53
2018-12-14T15:48:02.213Z,38.43
2018-12-14T15:50:31.417Z,34.00
2018-12-14T15:52:59.687Z,30.13
2018-12-14T15:55:27.915Z,33.17
2018-12-14T15:57:56.216Z,45.53
2018-12-14T16:00:24.509Z,48.77
2018-12-14T16:02:52.762Z,39.50
2018-12-14T16:05:21.050Z,37.03
2018-12-14T16:07:49.339Z,53.13
2018-12-14T16:10:17.649Z,53.13
2018-12-14T16:12:46.036Z,37.13
2018-12-14T16:15:20.040Z,37.07
2018-12-14T16:17:44.689Z,39.93
2018-12-14T16:20:13.240Z,36.73
2018-12-14T16:22:41.648Z,38.47
2018-12-14T16:25:10.083Z,35.83
2018-12-14T16:27:38.418Z,36.07
2018-12-14T16:30:08.077Z,33.50
2018-12-14T16:32:36.361Z,36.50
2018-12-14T16:35:05.358Z,32.03
2018-12-14T16:37:33.691Z,33.97
2018-12-14T16:40:02.103Z,34.33
2018-12-14T16:42:30.415Z,33.13
2018-12-14T16:44:58.721Z,30.83
2018-12-14T16:47:27.019Z,32.63
2018-12-14T16:49:55.307Z,29.00
2018-12-14T16:52:23.691Z,35.10
2018-12-14T16:54:51.953Z,33.07
2018-12-14T16:57:20.192Z,34.93
2018-12-14T16:59:48.576Z,35.33
2018-12-14T17:02:16.897Z,30.10
2018-12-14T17:04:45.116Z,35.73
2018-12-14T17:07:13.418Z,30.40
2018-12-14T17:09:41.732Z,37.10
2018-12-14T17:12:09.968Z,32.97
2018-12-14T17:14:38.204Z,33.33
2018-12-14T17:17:06.453Z,31.33
2018-12-14T17:19:34.702Z,32.23
2018-12-14T17:22:03.016Z,30.40
2018-12-14T17:24:31.338Z,32.90
2018-12-14T17:26:59.658Z,34.17
2018-12-14T17:29:28.095Z,28.20
2018-12-14T17:31:56.341Z,31.07
2018-12-14T17:34:24.707Z,34.77
2018-12-14T17:36:53.182Z,34.50
2018-12-14T17:39:21.470Z,62.87
2018-12-14T17:41:49.762Z,85.30
2018-12-14T17:44:18.090Z,47.50
2018-12-14T17:46:46.572Z,38.30
2018-12-14T17:49:14.888Z,34.33
2018-12-14T17:51:43.381Z,36.37
2018-12-14T17:54:11.638Z,38.40
2018-12-14T17:56:40.133Z,34.87
2018-12-14T17:59:08.418Z,32.60
2018-12-14T18:01:36.951Z,38.30
2018-12-14T18:04:05.211Z,32.43
2018-12-14T18:06:33.618Z,39.40
2018-12-14T18:09:02.034Z,42.07
2018-12-14T18:11:30.222Z,33.40
2018-12-14T18:13:59.504Z,35.87
2018-12-14T18:16:27.779Z,32.93
2018-12-14T18:18:56.151Z,39.37
2018-12-14T18:21:24.462Z,43.20
2018-12-14T18:23:52.712Z,40.83
2018-12-14T18:26:20.991Z,35.57
2018-12-14T18:28:49.292Z,38.30
2018-12-14T18:31:17.623Z,33.70
2018-12-14T18:33:45.955Z,34.93
2018-12-14T18:36:14.222Z,36.17
2018-12-14T18:38:42.460Z,39.50
2018-12-14T18:41:10.731Z,38.40
2018-12-14T18:43:38.990Z,37.57
2018-12-14T18:46:07.531Z,82.23
2018-12-14T18:48:36.191Z,42.00
2018-12-14T18:51:04.618Z,40.00
2018-12-14T18:53:32.891Z,56.60
2018-12-14T18:56:01.111Z,63.20
2018-12-14T18:58:29.775Z,68.30
2018-12-14T19:00:58.076Z,43.23
2018-12-14T19:03:26.388Z,56.43
2018-12-14T19:05:54.691Z,52.27
2018-12-14T19:08:22.944Z,50.30
2018-12-14T19:10:51.255Z,48.90
2018-12-14T19:13:19.505Z,43.07
2018-12-14T19:15:47.744Z,39.23
2018-12-14T19:18:16.062Z,39.77
2018-12-14T19:20:44.339Z,36.47
2018-12-14T19:23:19.301Z,40.80
2018-12-14T19:25:42.844Z,44.40
2018-12-14T19:28:11.200Z,39.60
2018-12-14T19:30:39.490Z,40.63
2018-12-14T19:33:07.765Z,37.50
2018-12-14T19:35:36.008Z,39.70
2018-12-14T19:38:04.420Z,39.30
2018-12-14T19:40:32.712Z,43.47
2018-12-14T19:43:01.129Z,37.93
2018-12-14T19:45:29.508Z,39.03
2018-12-14T19:47:57.776Z,41.70
2018-12-14T19:50:26.033Z,40.70
2018-12-14T19:52:54.642Z,36.77
2018-12-14T19:55:22.905Z,37.23
2018-12-14T19:57:51.185Z,34.40
2018-12-14T20:00:19.464Z,40.27
2018-12-14T20:02:47.706Z,39.00
2018-12-14T20:05:15.963Z,36.30
2018-12-14T20:07:44.196Z,44.30
2018-12-14T20:10:12.524Z,36.50
2018-12-14T20:12:41.212Z,39.03
2018-12-14T20:15:09.568Z,41.17
2018-12-14T20:17:37.916Z,33.83
2018-12-14T20:20:06.402Z,36.47
2018-12-14T20:22:34.840Z,34.47
2018-12-14T20:25:03.392Z,35.27
2018-12-14T20:27:31.732Z,36.70
2018-12-14T20:29:59.961Z,40.13
2018-12-14T20:32:28.568Z,34.33
2018-12-14T20:34:57.312Z,38.53
2018-12-14T20:37:25.667Z,36.50
2018-12-14T20:39:53.914Z,35.63
2018-12-14T20:42:22.195Z,34.70
2018-12-14T20:44:50.466Z,38.53
2018-12-14T20:47:18.703Z,37.53
2018-12-14T20:49:47.068Z,40.37
2018-12-14T20:52:15.295Z,44.27
2018-12-14T20:54:43.561Z,34.73
2018-12-14T20:57:11.880Z,37.93
2018-12-14T20:59:40.140Z,41.10
2018-12-14T21:02:08.419Z,46.30
2018-12-14T21:04:36.679Z,44.00
2018-12-14T21:07:05.019Z,36.77
2018-12-14T21:09:33.334Z,37.93
2018-12-14T21:12:01.649Z,42.13
2018-12-14T21:14:30.137Z,48.77
2018-12-14T21:16:58.555Z,38.00
2018-12-14T21:19:26.848Z,39.93
2018-12-14T21:21:55.097Z,45.17
2018-12-14T21:24:23.375Z,42.80
2018-12-14T21:26:51.634Z,49.00
2018-12-14T21:29:19.919Z,32.87
2018-12-14T21:31:48.200Z,40.07
2018-12-14T21:34:17.077Z,41.13
2018-12-14T21:36:45.491Z,32.90
2018-12-14T21:39:13.729Z,37.93
2018-12-14T21:41:41.960Z,40.20
2018-12-14T21:44:10.224Z,37.90
2018-12-14T21:46:38.528Z,40.60
2018-12-14T21:49:06.766Z,32.70
2018-12-14T21:51:35.037Z,34.07
2018-12-14T21:54:03.456Z,42.50
2018-12-14T21:56:31.720Z,39.93
2018-12-14T21:59:00.033Z,34.37
2018-12-14T22:01:28.557Z,37.20
2018-12-14T22:03:56.887Z,39.03
2018-12-14T22:06:25.152Z,36.37
2018-12-14T22:08:53.885Z,38.47
2018-12-14T22:11:22.234Z,33.20
2018-12-14T22:13:50.456Z,33.90
2018-12-14T22:16:19.310Z,32.33
2018-12-14T22:18:47.540Z,31.40
2018-12-14T22:21:15.855Z,34.83
2018-12-14T22:23:44.179Z,31.17
2018-12-14T22:26:12.570Z,29.93
2018-12-14T22:28:40.949Z,31.97
2018-12-14T22:31:09.219Z,26.97
2018-12-14T22:33:37.477Z,29.50
2018-12-14T22:36:05.732Z,29.13
2018-12-14T22:38:33.992Z,28.87
2018-12-14T22:41:02.357Z,30.10
2018-12-14T22:43:30.641Z,31.53
2018-12-14T22:46:00.013Z,30.43
2018-12-14T22:48:28.263Z,27.53
2018-12-14T22:50:56.584Z,26.90
2018-12-14T22:53:24.917Z,34.67
2018-12-14T22:55:53.298Z,29.27
2018-12-14T22:58:21.603Z,27.60
2018-12-14T23:00:52.792Z,27.90
2018-12-14T23:03:21.291Z,28.40
2018-12-14T23:05:50.037Z,30.50
2018-12-14T23:08:18.313Z,31.20
2018-12-14T23:10:46.603Z,24.33
2018-12-14T23:13:14.855Z,32.60
2018-12-14T23:15:44.081Z,27.70
2018-12-14T23:18:12.356Z,28.63
2018-12-14T23:20:40.987Z,23.17
2018-12-14T23:23:09.230Z,23.07
2018-12-14T23:25:37.664Z,27.00
2018-12-14T23:28:05.919Z,22.90
2018-12-14T23:30:34.134Z,24.50
2018-12-14T23:33:03.383Z,25.50
2018-12-14T23:35:31.657Z,28.73
2018-12-14T23:37:59.927Z,25.33
2018-12-14T23:40:28.321Z,22.90
2018-12-14T23:42:56.794Z,28.50
2018-12-14T23:45:25.052Z,21.80
2018-12-14T23:47:53.351Z,21.37
2018-12-14T23:50:21.564Z,24.60
2018-12-14T23:52:49.863Z,20.10
2018-12-14T23:55:18.105Z,17.83
2018-12-14T23:57:46.344Z,27.40
